createdAt,value
2023-01-09T00:00:49.299Z,31.40
2023-01-09T00:03:24.875Z,30.70
2023-01-09T00:05:52.172Z,36.10
2023-01-09T00:08:19.503Z,34.50
2023-01-09T00:10:49.781Z,26.90
2023-01-09T00:13:18.363Z,37.30
2023-01-09T00:15:45.878Z,79.20
2023-01-09T00:18:13.358Z,46.30
2023-01-09T00:20:41.175Z,39.60
2023-01-09T00:23:08.452Z,40.40
2023-01-09T00:25:36.576Z,41.30
2023-01-09T00:28:03.980Z,34.90
2023-01-09T00:30:31.132Z,30.10
2023-01-09T00:32:58.489Z,31.20
2023-01-09T00:35:28.612Z,34.70
2023-01-09T00:37:56.243Z,35.80
2023-01-09T00:40:23.380Z,33.90
2023-01-09T00:42:56.357Z,36.60
2023-01-09T00:45:29.306Z,36.80
2023-01-09T00:48:07.784Z,36.60
2023-01-09T00:50:36.010Z,31.20
2023-01-09T00:53:09.248Z,32.00
2023-01-09T00:55:38.480Z,32.30
2023-01-09T00:58:06.405Z,34.60
2023-01-09T01:00:33.553Z,35.50
2023-01-09T01:03:00.763Z,32.80
2023-01-09T01:05:47.232Z,33.20
2023-01-09T01:08:16.783Z,29.10
2023-01-09T01:10:44.935Z,27.40
2023-01-09T01:13:12.570Z,30.90
2023-01-09T01:15:41.042Z,43.60
2023-01-09T01:18:08.918Z,41.40
2023-01-09T01:20:36.301Z,42.50
2023-01-09T01:23:03.525Z,39.90
2023-01-09T01:25:30.859Z,30.60
2023-01-09T01:27:57.981Z,31.10
2023-01-09T01:30:25.135Z,29.80
2023-01-09T01:32:52.257Z,31.80
2023-01-09T01:35:19.536Z,36.00
2023-01-09T01:37:46.669Z,34.10
2023-01-09T01:40:13.962Z,31.70
2023-01-09T01:42:52.868Z,27.80
2023-01-09T01:45:28.513Z,21.80
2023-01-09T01:50:37.845Z,28.50
2023-01-09T01:53:19.517Z,35.40
2023-01-09T01:55:51.267Z,32.50
2023-01-09T01:58:18.908Z,27.90
2023-01-09T02:00:48.440Z,33.50
2023-01-09T02:03:19.538Z,28.50
2023-01-09T02:05:46.744Z,28.40
2023-01-09T02:08:14.160Z,34.10
2023-01-09T02:10:41.676Z,39.50
2023-01-09T02:13:10.307Z,41.30
2023-01-09T02:16:02.487Z,40.00
2023-01-09T02:18:54.300Z,32.20
2023-01-09T02:21:43.133Z,33.30
2023-01-09T02:24:45.614Z,31.60
2023-01-09T02:27:19.071Z,29.80
2023-01-09T02:30:05.107Z,31.00
2023-01-09T02:35:25.156Z,32.90
2023-01-09T02:38:03.605Z,28.60
2023-01-09T02:41:03.734Z,27.10
2023-01-09T02:43:32.001Z,32.10
2023-01-09T02:45:59.197Z,32.70
2023-01-09T02:48:26.377Z,34.40
2023-01-09T02:50:53.561Z,36.90
2023-01-09T02:53:30.180Z,35.00
2023-01-09T02:56:03.477Z,31.90
2023-01-09T02:58:47.015Z,24.40
2023-01-09T03:01:44.978Z,30.90
2023-01-09T03:04:27.618Z,33.30
2023-01-09T03:07:03.732Z,36.70
2023-01-09T03:09:36.283Z,35.10
2023-01-09T03:12:14.777Z,32.10
2023-01-09T03:14:47.609Z,30.00
2023-01-09T03:17:22.870Z,31.00
2023-01-09T03:19:52.687Z,28.40
2023-01-09T03:22:20.034Z,30.40
2023-01-09T03:24:47.169Z,30.40
2023-01-09T03:27:15.281Z,28.80
2023-01-09T03:29:42.634Z,32.10
2023-01-09T03:32:09.756Z,28.60
2023-01-09T03:34:37.003Z,25.80
2023-01-09T03:37:05.091Z,27.90
2023-01-09T03:39:32.963Z,28.60
2023-01-09T03:42:00.215Z,29.40
2023-01-09T03:44:27.292Z,33.20
2023-01-09T03:46:54.467Z,30.90
2023-01-09T03:49:21.882Z,33.50
2023-01-09T03:51:49.113Z,31.70
2023-01-09T03:54:16.201Z,23.10
2023-01-09T03:56:43.308Z,27.40
2023-01-09T03:59:10.464Z,27.20
2023-01-09T04:01:37.681Z,24.70
2023-01-09T04:04:05.033Z,27.90
2023-01-09T04:06:32.133Z,35.40
2023-01-09T04:08:59.309Z,33.20
2023-01-09T04:11:26.421Z,35.80
2023-01-09T04:13:53.635Z,32.30
2023-01-09T04:16:20.786Z,30.60
2023-01-09T04:18:47.962Z,30.00
2023-01-09T04:21:15.118Z,32.50
2023-01-09T04:23:42.341Z,37.00
2023-01-09T04:26:09.519Z,30.80
2023-01-09T04:28:36.746Z,35.60
2023-01-09T04:31:03.924Z,42.00
2023-01-09T04:33:31.077Z,35.00
2023-01-09T04:35:58.298Z,37.50
2023-01-09T04:38:25.449Z,52.70
2023-01-09T04:40:52.855Z,50.10
2023-01-09T04:43:20.044Z,54.10
2023-01-09T04:45:47.320Z,42.50
2023-01-09T04:48:14.896Z,39.70
2023-01-09T04:50:42.152Z,34.80
2023-01-09T04:53:09.513Z,31.60
2023-01-09T04:55:36.650Z,33.60
2023-01-09T04:58:04.063Z,33.70
2023-01-09T05:00:31.346Z,32.20
2023-01-09T05:02:58.596Z,32.10
2023-01-09T05:05:25.808Z,32.90
2023-01-09T05:07:53.047Z,35.20
2023-01-09T05:10:20.300Z,36.00
2023-01-09T05:12:47.410Z,39.10
2023-01-09T05:15:14.575Z,37.40
2023-01-09T05:17:41.853Z,33.30
2023-01-09T05:20:09.690Z,33.40
2023-01-09T05:22:36.845Z,28.70
2023-01-09T05:25:04.164Z,29.70
2023-01-09T05:27:31.334Z,26.10
2023-01-09T05:29:58.508Z,33.90
2023-01-09T05:32:25.659Z,34.00
2023-01-09T05:34:52.813Z,31.40
2023-01-09T05:37:19.854Z,35.40
2023-01-09T05:39:47.007Z,31.60
2023-01-09T05:42:14.673Z,32.00
2023-01-09T05:44:41.950Z,32.00
2023-01-09T05:47:09.152Z,31.80
2023-01-09T05:49:36.375Z,28.80
2023-01-09T05:52:03.659Z,30.80
2023-01-09T05:54:30.855Z,32.90
2023-01-09T05:56:58.009Z,32.70
2023-01-09T05:59:25.136Z,31.90
2023-01-09T06:01:54.451Z,32.50
2023-01-09T06:04:21.865Z,27.70
2023-01-09T06:06:48.993Z,30.10
2023-01-09T06:09:16.139Z,27.70
2023-01-09T06:11:43.314Z,29.30
2023-01-09T06:14:10.419Z,36.70
2023-01-09T06:16:37.540Z,35.60
2023-01-09T06:19:06.025Z,32.20
2023-01-09T06:21:33.864Z,41.30
2023-01-09T06:24:00.986Z,37.40
2023-01-09T06:26:28.136Z,42.10
2023-01-09T06:28:55.953Z,30.60
2023-01-09T06:31:24.803Z,36.90
2023-01-09T06:33:52.586Z,38.90
2023-01-09T06:36:22.338Z,31.80
2023-01-09T06:38:49.885Z,30.30
2023-01-09T06:41:17.568Z,32.40
2023-01-09T06:43:44.925Z,36.00
2023-01-09T06:46:13.098Z,32.90
2023-01-09T06:48:40.278Z,34.80
2023-01-09T06:51:07.350Z,31.80
2023-01-09T06:53:35.357Z,30.40
2023-01-09T06:56:02.962Z,30.10
2023-01-09T06:58:30.187Z,30.40
2023-01-09T07:00:59.004Z,36.70
2023-01-09T07:03:26.134Z,45.70
2023-01-09T07:05:53.305Z,36.80
2023-01-09T07:08:20.605Z,40.20
2023-01-09T07:10:47.711Z,36.10
2023-01-09T07:13:14.835Z,32.80
2023-01-09T07:15:42.316Z,39.70
2023-01-09T07:18:09.689Z,38.90
2023-01-09T07:20:39.479Z,41.30
2023-01-09T07:23:06.734Z,42.30
2023-01-09T07:25:33.826Z,41.50
2023-01-09T07:28:01.007Z,46.90
2023-01-09T07:30:28.263Z,45.60
2023-01-09T07:32:55.386Z,44.90
2023-01-09T07:35:22.637Z,36.40
2023-01-09T07:37:49.754Z,34.70
2023-01-09T07:40:17.150Z,37.70
2023-01-09T07:42:44.293Z,30.30
2023-01-09T07:45:11.689Z,38.20
2023-01-09T07:47:41.133Z,40.60
2023-01-09T07:50:09.470Z,46.30
2023-01-09T07:52:36.810Z,45.10
2023-01-09T07:55:04.472Z,35.20
2023-01-09T07:57:31.572Z,35.40
2023-01-09T08:00:00.654Z,36.20
2023-01-09T08:02:27.967Z,35.00
2023-01-09T08:04:55.231Z,42.70
2023-01-09T08:07:22.466Z,41.80
2023-01-09T08:09:49.799Z,43.30
2023-01-09T08:12:16.955Z,35.70
2023-01-09T08:14:44.140Z,32.60
2023-01-09T08:17:11.906Z,37.40
2023-01-09T08:19:39.112Z,36.80
2023-01-09T08:22:06.336Z,42.90
2023-01-09T08:24:35.455Z,44.10
2023-01-09T08:27:03.241Z,53.30
2023-01-09T08:29:30.572Z,58.00
2023-01-09T08:31:57.907Z,50.30
2023-01-09T08:34:25.106Z,49.30
2023-01-09T08:36:53.602Z,45.80
2023-01-09T08:39:20.766Z,39.50
2023-01-09T08:42:07.090Z,36.50
2023-01-09T08:44:52.705Z,41.20
2023-01-09T08:47:23.457Z,45.20
2023-01-09T08:49:50.687Z,47.40
2023-01-09T08:52:17.791Z,46.70
2023-01-09T08:54:44.942Z,47.80
2023-01-09T08:57:12.137Z,45.40
2023-01-09T08:59:39.238Z,39.30
2023-01-09T09:02:06.734Z,41.20
2023-01-09T09:04:33.851Z,34.80
2023-01-09T09:07:01.019Z,41.50
2023-01-09T09:09:28.233Z,51.50
2023-01-09T09:11:55.473Z,47.10
2023-01-09T09:14:41.411Z,50.60
2023-01-09T09:17:08.620Z,55.10
2023-01-09T09:19:35.750Z,52.80
2023-01-09T09:22:02.917Z,39.80
2023-01-09T09:24:30.060Z,36.40
2023-01-09T09:26:57.194Z,36.40
2023-01-09T09:29:25.111Z,38.60
2023-01-09T09:31:52.348Z,69.40
2023-01-09T09:34:19.551Z,55.00
2023-01-09T09:36:47.023Z,44.70
2023-01-09T09:39:14.280Z,45.50
2023-01-09T09:42:32.819Z,45.90
2023-01-09T09:45:12.304Z,55.90
2023-01-09T09:48:02.568Z,49.60
2023-01-09T09:50:51.408Z,54.40
2023-01-09T09:53:39.774Z,44.80
2023-01-09T09:56:14.953Z,57.00
2023-01-09T09:58:46.645Z,45.40
2023-01-09T10:01:20.856Z,39.50
2023-01-09T10:03:52.489Z,38.40
2023-01-09T10:06:37.002Z,38.00
2023-01-09T10:09:07.045Z,45.70
2023-01-09T10:11:43.286Z,37.40
2023-01-09T10:14:23.655Z,41.50
2023-01-09T10:17:30.055Z,57.60
2023-01-09T10:20:19.854Z,59.20
2023-01-09T10:22:56.193Z,93.80
2023-01-09T10:25:45.193Z,56.80
2023-01-09T10:28:50.429Z,42.20
2023-01-09T10:31:23.206Z,75.40
2023-01-09T10:34:02.565Z,76.00
2023-01-09T10:36:44.752Z,96.10
2023-01-09T10:39:27.211Z,53.90
2023-01-09T10:41:58.430Z,51.90
2023-01-09T10:44:43.288Z,56.90
2023-01-09T10:47:28.053Z,49.20
2023-01-09T10:49:56.661Z,52.50
2023-01-09T10:52:41.834Z,39.30
2023-01-09T10:55:33.826Z,53.50
2023-01-09T10:58:12.843Z,52.90
2023-01-09T11:00:41.540Z,32.40
2023-01-09T11:03:20.176Z,55.30
2023-01-09T11:05:57.420Z,54.20
2023-01-09T11:08:31.257Z,43.10
2023-01-09T11:11:00.946Z,42.50
2023-01-09T11:13:33.619Z,49.90
2023-01-09T11:16:23.877Z,55.20
2023-01-09T11:18:57.808Z,51.20
2023-01-09T11:21:32.867Z,67.30
2023-01-09T11:24:19.047Z,67.80
2023-01-09T11:29:16.266Z,57.10
2023-01-09T11:31:52.223Z,66.50
2023-01-09T11:34:22.885Z,48.30
2023-01-09T11:36:53.304Z,47.50
2023-01-09T11:39:27.040Z,55.80
2023-01-09T11:42:01.026Z,48.80
2023-01-09T11:44:30.248Z,51.00
2023-01-09T11:46:57.590Z,45.30
2023-01-09T11:49:27.419Z,42.60
2023-01-09T11:52:21.022Z,55.00
2023-01-09T11:54:56.611Z,41.60
2023-01-09T11:59:54.498Z,50.60
2023-01-09T12:02:41.505Z,46.70
2023-01-09T12:05:20.323Z,42.40
2023-01-09T12:08:06.089Z,45.80
2023-01-09T12:11:04.465Z,43.50
2023-01-09T12:13:34.729Z,46.90
2023-01-09T12:16:20.494Z,43.90
2023-01-09T12:19:09.123Z,38.30
2023-01-09T12:21:58.237Z,40.90
2023-01-09T12:24:40.006Z,42.10
2023-01-09T12:27:26.279Z,40.20
2023-01-09T12:30:02.458Z,39.90
2023-01-09T12:32:54.683Z,37.80
2023-01-09T12:35:40.475Z,36.10
2023-01-09T12:38:47.767Z,35.20
2023-01-09T12:41:36.971Z,41.50
2023-01-09T12:44:30.698Z,37.60
2023-01-09T12:47:12.317Z,44.60
2023-01-09T12:49:50.832Z,37.10
2023-01-09T12:52:39.088Z,38.10
2023-01-09T12:55:21.140Z,38.60
2023-01-09T12:57:55.857Z,35.40
2023-01-09T13:00:31.201Z,35.10
2023-01-09T13:03:18.038Z,37.20
2023-01-09T13:05:51.613Z,40.70
2023-01-09T13:08:40.832Z,40.00
2023-01-09T13:11:20.714Z,82.20
2023-01-09T13:14:06.860Z,80.70
2023-01-09T13:16:41.855Z,67.80
2023-01-09T13:19:14.210Z,73.90
2023-01-09T13:21:41.723Z,73.50
2023-01-09T13:24:35.612Z,47.20
2023-01-09T13:27:09.147Z,49.10
2023-01-09T13:29:42.139Z,54.30
2023-01-09T13:32:37.241Z,53.20
2023-01-09T13:35:04.978Z,58.90
2023-01-09T13:37:35.583Z,51.30
2023-01-09T13:40:21.002Z,62.80
2023-01-09T13:43:05.565Z,51.20
2023-01-09T13:45:35.187Z,54.60
2023-01-09T13:48:12.072Z,50.80
2023-01-09T13:50:40.083Z,44.00
2023-01-09T13:53:27.456Z,50.90
2023-01-09T13:55:58.265Z,44.10
2023-01-09T13:58:31.544Z,39.00
2023-01-09T14:01:01.841Z,46.20
2023-01-09T14:03:33.251Z,50.20
2023-01-09T14:06:00.670Z,43.20
2023-01-09T14:08:30.048Z,63.20
2023-01-09T14:11:01.263Z,65.70
2023-01-09T14:13:31.643Z,50.00
2023-01-09T14:16:09.255Z,46.70
2023-01-09T14:18:40.602Z,42.10
2023-01-09T14:21:12.216Z,48.00
2023-01-09T14:23:52.454Z,51.50
2023-01-09T14:26:43.331Z,68.70
2023-01-09T14:29:31.864Z,67.00
2023-01-09T14:32:21.001Z,135.50
2023-01-09T14:34:52.685Z,78.50
2023-01-09T14:37:20.549Z,80.40
2023-01-09T14:39:51.209Z,68.70
2023-01-09T14:42:25.885Z,69.40
2023-01-09T14:45:06.625Z,66.50
2023-01-09T14:47:42.176Z,65.30
2023-01-09T14:50:38.125Z,57.00
2023-01-09T14:53:16.775Z,55.40
2023-01-09T14:55:52.906Z,63.00
2023-01-09T14:58:31.936Z,76.10
2023-01-09T15:01:06.148Z,64.60
2023-01-09T15:03:42.857Z,65.50
2023-01-09T15:06:18.890Z,67.80
2023-01-09T15:08:47.854Z,53.40
2023-01-09T15:11:15.160Z,34.50
2023-01-09T15:13:46.926Z,42.30
2023-01-09T15:16:23.057Z,88.80
2023-01-09T15:19:00.370Z,91.70
2023-01-09T15:21:33.179Z,52.90
2023-01-09T15:24:21.630Z,46.10
2023-01-09T15:26:54.305Z,56.00
2023-01-09T15:29:21.745Z,38.70
2023-01-09T15:31:53.940Z,72.30
2023-01-09T15:34:24.614Z,48.50
2023-01-09T15:36:52.927Z,46.60
2023-01-09T15:39:27.109Z,49.90
2023-01-09T15:42:14.511Z,86.60
2023-01-09T15:44:45.499Z,52.60
2023-01-09T15:47:18.691Z,41.90
2023-01-09T15:49:46.908Z,48.60
2023-01-09T15:52:17.017Z,58.20
2023-01-09T15:54:49.244Z,58.50
2023-01-09T15:57:25.943Z,56.70
2023-01-09T15:59:54.373Z,52.00
2023-01-09T16:02:41.915Z,46.60
2023-01-09T16:05:14.932Z,48.10
2023-01-09T16:07:50.988Z,69.70
2023-01-09T16:10:35.218Z,72.70
2023-01-09T16:13:02.802Z,55.80
2023-01-09T16:15:34.972Z,50.20
2023-01-09T16:18:06.164Z,56.70
2023-01-09T16:20:33.366Z,50.30
2023-01-09T16:23:01.886Z,51.20
2023-01-09T16:25:34.705Z,105.40
2023-01-09T16:28:27.182Z,134.00
2023-01-09T16:31:02.505Z,130.20
2023-01-09T16:33:31.614Z,77.60
2023-01-09T16:35:59.353Z,138.90
2023-01-09T16:38:27.355Z,81.60
2023-01-09T16:41:34.052Z,119.30
2023-01-09T16:44:01.672Z,109.30
2023-01-09T16:46:28.913Z,93.30
2023-01-09T16:48:56.208Z,106.60
2023-01-09T16:51:23.367Z,88.30
2023-01-09T16:53:50.644Z,45.10
2023-01-09T16:56:22.201Z,44.00
2023-01-09T16:58:49.575Z,43.80
2023-01-09T17:01:16.835Z,31.10
2023-01-09T17:03:44.546Z,31.20
2023-01-09T17:06:29.753Z,29.40
2023-01-09T17:08:57.434Z,32.40
2023-01-09T17:11:31.681Z,51.50
2023-01-09T17:14:02.521Z,222.30
2023-01-09T17:16:30.542Z,269.70
2023-01-09T17:18:57.727Z,127.90
2023-01-09T17:21:29.054Z,128.60
2023-01-09T17:24:15.942Z,53.70
2023-01-09T17:27:08.265Z,174.00
2023-01-09T17:29:35.865Z,48.00
2023-01-09T17:32:03.805Z,154.60
2023-01-09T17:34:31.036Z,57.50
2023-01-09T17:36:58.274Z,48.10
2023-01-09T17:39:25.517Z,39.90
2023-01-09T17:41:52.629Z,55.30
2023-01-09T17:44:19.806Z,37.30
2023-01-09T17:46:46.939Z,43.10
2023-01-09T17:49:20.509Z,201.70
2023-01-09T17:51:47.662Z,197.40
2023-01-09T17:54:15.039Z,259.80
2023-01-09T17:56:45.665Z,191.80
2023-01-09T17:59:14.212Z,104.30
2023-01-09T18:01:45.054Z,76.70
2023-01-09T18:04:12.575Z,61.10
2023-01-09T18:06:39.907Z,72.20
2023-01-09T18:09:08.017Z,67.20
2023-01-09T18:11:35.296Z,64.00
2023-01-09T18:14:02.449Z,58.90
2023-01-09T18:16:30.425Z,62.60
2023-01-09T18:18:58.892Z,136.30
2023-01-09T18:21:28.001Z,108.90
2023-01-09T18:23:56.670Z,76.70
2023-01-09T18:26:23.844Z,110.50
2023-01-09T18:28:56.492Z,121.70
2023-01-09T18:31:25.631Z,71.60
2023-01-09T18:33:54.813Z,51.40
2023-01-09T18:36:24.504Z,85.80
2023-01-09T18:38:53.683Z,71.60
2023-01-09T18:41:21.828Z,141.10
2023-01-09T18:43:52.784Z,144.70
2023-01-09T18:46:24.185Z,88.10
2023-01-09T18:48:56.392Z,153.60
2023-01-09T18:51:24.795Z,163.00
2023-01-09T18:53:52.088Z,108.70
2023-01-09T18:56:20.291Z,77.80
2023-01-09T18:58:48.423Z,94.90
2023-01-09T19:01:16.612Z,82.50
2023-01-09T19:03:43.947Z,61.40
2023-01-09T19:06:11.229Z,91.70
2023-01-09T19:08:38.712Z,90.40
2023-01-09T19:11:06.195Z,56.70
2023-01-09T19:13:36.580Z,97.00
2023-01-09T19:16:06.257Z,82.00
2023-01-09T19:18:42.184Z,67.10
2023-01-09T19:21:15.000Z,40.20
2023-01-09T19:23:43.693Z,41.80
2023-01-09T19:26:26.388Z,74.90
2023-01-09T19:28:57.345Z,59.30
2023-01-09T19:31:28.299Z,40.40
2023-01-09T19:33:56.490Z,66.90
2023-01-09T19:36:23.831Z,40.50
2023-01-09T19:38:56.995Z,42.50
2023-01-09T19:41:24.477Z,32.70
2023-01-09T19:43:51.956Z,39.30
2023-01-09T19:46:22.091Z,35.80
2023-01-09T19:48:49.719Z,42.50
2023-01-09T19:51:19.418Z,37.50
2023-01-09T19:53:53.727Z,50.60
2023-01-09T19:56:23.441Z,45.00
2023-01-09T19:58:53.167Z,41.50
2023-01-09T20:01:24.682Z,44.30
2023-01-09T20:03:53.140Z,51.10
2023-01-09T20:06:24.413Z,46.80
2023-01-09T20:08:54.559Z,43.00
2023-01-09T20:11:22.979Z,43.90
2023-01-09T20:13:50.595Z,47.30
2023-01-09T20:16:22.812Z,49.20
2023-01-09T20:18:50.219Z,48.40
2023-01-09T20:21:22.248Z,42.60
2023-01-09T20:23:50.796Z,38.90
2023-01-09T20:26:19.023Z,42.10
2023-01-09T20:28:47.369Z,42.30
2023-01-09T20:31:18.031Z,53.40
2023-01-09T20:33:47.457Z,52.20
2023-01-09T20:36:15.886Z,51.70
2023-01-09T20:38:44.294Z,42.50
2023-01-09T20:41:25.981Z,49.80
2023-01-09T20:43:55.819Z,48.20
2023-01-09T20:46:25.866Z,45.50
2023-01-09T20:48:56.304Z,77.70
2023-01-09T20:51:23.556Z,64.30
2023-01-09T20:53:58.987Z,78.70
2023-01-09T20:56:28.267Z,126.70
2023-01-09T20:58:56.905Z,112.00
2023-01-09T21:01:25.342Z,77.90
2023-01-09T21:03:53.851Z,97.20
2023-01-09T21:06:23.993Z,108.20
2023-01-09T21:08:53.118Z,186.60
2023-01-09T21:11:21.832Z,114.50
2023-01-09T21:13:49.671Z,84.50
2023-01-09T21:16:21.476Z,83.10
2023-01-09T21:18:49.212Z,108.00
2023-01-09T21:21:19.417Z,81.00
2023-01-09T21:23:48.040Z,77.40
2023-01-09T21:26:16.986Z,98.60
2023-01-09T21:28:44.363Z,151.30
2023-01-09T21:31:12.075Z,48.00
2023-01-09T21:33:39.562Z,79.30
2023-01-09T21:36:07.366Z,91.40
2023-01-09T21:38:34.630Z,61.80
2023-01-09T21:41:21.700Z,40.70
2023-01-09T21:44:07.998Z,82.40
2023-01-09T21:46:53.502Z,121.20
2023-01-09T21:49:23.340Z,81.60
2023-01-09T21:51:50.591Z,57.20
2023-01-09T21:54:17.772Z,77.60
2023-01-09T21:56:44.973Z,58.10
2023-01-09T21:59:12.251Z,78.90
2023-01-09T22:01:39.608Z,61.20
2023-01-09T22:04:06.950Z,76.50
2023-01-09T22:06:35.853Z,55.70
2023-01-09T22:09:03.136Z,45.10
2023-01-09T22:11:30.283Z,43.70
2023-01-09T22:13:57.818Z,57.60
2023-01-09T22:16:26.998Z,116.30
2023-01-09T22:18:55.474Z,106.50
2023-01-09T22:21:24.186Z,44.20
2023-01-09T22:23:51.984Z,99.70
2023-01-09T22:26:19.335Z,102.40
2023-01-09T22:28:46.839Z,77.50
2023-01-09T22:31:21.758Z,48.00
2023-01-09T22:33:53.389Z,53.90
2023-01-09T22:36:20.984Z,37.90
2023-01-09T22:38:48.182Z,73.90
2023-01-09T22:41:15.519Z,88.90
2023-01-09T22:43:42.732Z,49.00
2023-01-09T22:46:11.669Z,72.70
2023-01-09T22:48:39.870Z,67.90
2023-01-09T22:51:12.410Z,126.60
2023-01-09T22:53:39.637Z,111.60
2023-01-09T22:56:10.215Z,212.90
2023-01-09T22:58:37.586Z,55.80
2023-01-09T23:01:06.011Z,130.80
2023-01-09T23:03:33.478Z,50.30
2023-01-09T23:06:10.272Z,191.20
2023-01-09T23:08:37.506Z,72.30
2023-01-09T23:11:07.259Z,87.60
2023-01-09T23:13:34.419Z,219.80
2023-01-09T23:16:01.996Z,59.20
2023-01-09T23:18:29.390Z,106.20
2023-01-09T23:20:59.503Z,172.40
2023-01-09T23:23:28.338Z,449.30
2023-01-09T23:25:58.429Z,157.00
2023-01-09T23:28:26.900Z,170.30
2023-01-09T23:30:54.437Z,196.30
2023-01-09T23:33:21.567Z,85.90
2023-01-09T23:35:49.130Z,78.80
2023-01-09T23:38:16.383Z,94.00
2023-01-09T23:40:43.828Z,279.20
2023-01-09T23:43:12.433Z,117.70
2023-01-09T23:45:44.914Z,57.70
2023-01-09T23:48:14.828Z,206.80
2023-01-09T23:50:49.571Z,58.80
2023-01-09T23:53:17.881Z,79.40
2023-01-09T23:55:45.142Z,100.70
2023-01-09T23:58:12.360Z,181.30
